Time;durP1;ratioP1;P1;durP2;ratioP2;P2;SDS_P1;SDS_P2;PMS_P1;PMS_P2;Temp;Humidity;BMP_temperature;BMP_pressure;BME280_temperature;BME280_humidity;BME280_pressure;Samples;Min_cycle;Max_cycle;Signal;HPM_P1;HPM_P2
2022/10/05 00:02:22;;;;;;;20.00;11.60;;;;;;;9.79;100.00;100901.06;5106861;28;20048;-71
2022/10/05 00:04:55;;;;;;;18.35;11.40;;;;;;;9.79;100.00;100895.78;5105031;28;20058;-70
2022/10/05 00:07:23;;;;;;;19.80;11.50;;;;;;;9.84;100.00;100893.84;5105178;28;20060;-71
2022/10/05 00:09:55;;;;;;;17.55;11.35;;;;;;;9.83;100.00;100894.75;5103026;28;20508;-72
2022/10/05 00:12:24;;;;;;;19.65;11.35;;;;;;;9.72;100.00;100866.97;5098570;28;20068;-72
2022/10/05 00:14:54;;;;;;;16.83;10.77;;;;;;;9.74;100.00;100851.91;5094886;28;20040;-71
2022/10/05 00:17:23;;;;;;;15.93;10.95;;;;;;;9.88;100.00;100876.09;5094960;28;20414;-71
2022/10/05 00:19:51;;;;;;;17.50;11.27;;;;;;;9.85;100.00;100860.31;5098010;28;20055;-70
2022/10/05 00:22:27;;;;;;;16.85;10.95;;;;;;;9.90;100.00;100862.81;5104517;28;20048;-70
2022/10/05 00:24:57;;;;;;;18.60;11.15;;;;;;;9.90;100.00;100855.72;5099075;28;20052;-71
2022/10/05 00:27:25;;;;;;;17.95;11.13;;;;;;;9.93;100.00;100860.03;5091501;28;20491;-71
2022/10/05 00:29:56;;;;;;;18.15;11.35;;;;;;;9.85;100.00;100844.44;5088765;28;20044;-72
2022/10/05 00:32:22;;;;;;;17.98;10.48;;;;;;;9.94;100.00;100862.63;5094240;28;20051;-71
2022/10/05 00:34:49;;;;;;;14.10;10.90;;;;;;;9.98;100.00;100869.53;5094719;28;20134;-72
2022/10/05 00:37:16;;;;;;;16.27;11.25;;;;;;;10.01;100.00;100865.91;5094391;28;20058;-70
2022/10/05 00:39:43;;;;;;;16.35;11.23;;;;;;;10.01;100.00;100864.13;5093875;28;20927;-71
2022/10/05 00:42:09;;;;;;;14.30;10.55;;;;;;;10.03;100.00;100859.66;5095678;28;20044;-71
2022/10/05 00:45:00;;;;;;;17.15;11.75;;;;;;;10.05;100.00;100852.50;5092571;28;20047;-70
2022/10/05 00:47:40;;;;;;;17.23;11.57;;;;;;;10.06;100.00;100838.38;5093462;28;20051;-72
2022/10/05 00:50:10;;;;;;;21.40;11.15;;;;;;;10.14;100.00;100849.50;5087783;28;20043;-71
2022/10/05 00:53:03;;;;;;;16.35;11.40;;;;;;;10.16;100.00;100830.94;5092537;28;20054;-69
2022/10/05 00:55:59;;;;;;;20.05;12.45;;;;;;;10.19;100.00;100837.00;5090913;28;20050;-71
2022/10/05 00:58:34;;;;;;;19.50;13.35;;;;;;;10.23;100.00;100837.72;5101033;28;20052;-71
2022/10/05 01:01:12;;;;;;;27.45;14.07;;;;;;;10.26;100.00;100840.25;5101452;28;20055;-71
2022/10/05 01:03:48;;;;;;;17.27;12.68;;;;;;;10.28;100.00;100850.78;5095240;28;20043;-72
2022/10/05 01:06:28;;;;;;;20.38;13.02;;;;;;;10.26;100.00;100842.91;5096869;28;20135;-71
2022/10/05 01:09:17;;;;;;;21.35;12.50;;;;;;;10.27;100.00;100846.41;5100054;28;20048;-72
2022/10/05 01:11:43;;;;;;;20.23;12.52;;;;;;;10.29;100.00;100841.94;5098831;28;20119;-71
2022/10/05 01:14:42;;;;;;;18.02;11.70;;;;;;;10.29;100.00;100847.22;5092631;28;20071;-70
2022/10/05 01:17:19;;;;;;;18.60;13.05;;;;;;;10.23;100.00;100842.19;5086161;28;20071;-71
2022/10/05 01:20:22;;;;;;;20.42;12.30;;;;;;;10.24;100.00;100841.25;5097926;28;20050;-71
2022/10/05 01:23:07;;;;;;;19.65;13.20;;;;;;;10.19;100.00;100841.44;5085505;28;20048;-71
2022/10/05 01:25:51;;;;;;;23.55;13.75;;;;;;;10.15;100.00;100843.28;5099502;27;20509;-71
2022/10/05 01:28:33;;;;;;;21.70;14.10;;;;;;;10.13;100.00;100847.78;5100386;28;20051;-72
2022/10/05 01:31:12;;;;;;;20.75;13.45;;;;;;;10.03;100.00;100850.84;5098471;28;20050;-73
2022/10/05 01:33:45;;;;;;;19.52;12.82;;;;;;;9.77;100.00;100820.91;5086105;28;20081;-72
2022/10/05 01:36:24;;;;;;;15.65;11.93;;;;;;;9.77;100.00;100842.06;5101617;28;20040;-71
2022/10/05 01:39:04;;;;;;;21.00;11.57;;;;;;;9.66;100.00;100848.66;5104502;28;20057;-71
2022/10/05 01:41:40;;;;;;;16.10;10.88;;;;;;;9.52;100.00;100851.81;5097769;28;20060;-74
2022/10/05 01:44:39;;;;;;;18.23;11.57;;;;;;;9.38;100.00;100859.38;5097025;27;20051;-70
2022/10/05 01:47:32;;;;;;;17.92;11.00;;;;;;;9.26;100.00;100854.50;5059691;28;20055;-70
2022/10/05 01:50:00;;;;;;;17.67;11.75;;;;;;;9.14;100.00;100851.34;5092459;28;20524;-70
2022/10/05 01:52:47;;;;;;;15.45;10.13;;;;;;;9.15;100.00;100849.56;5099215;28;20043;-70
2022/10/05 01:55:17;;;;;;;16.77;10.40;;;;;;;9.11;100.00;100832.13;5092352;28;20050;-71
2022/10/05 01:58:34;;;;;;;16.10;10.82;;;;;;;9.17;100.00;100831.03;5092897;28;20127;-72
2022/10/05 02:01:13;;;;;;;15.30;10.90;;;;;;;9.27;100.00;100830.69;5071860;28;20043;-71
2022/10/05 02:03:51;;;;;;;16.45;11.13;;;;;;;9.31;100.00;100815.53;5094569;28;20044;-72
2022/10/05 02:06:26;;;;;;;16.77;11.43;;;;;;;9.32;100.00;100806.72;5097356;28;20514;-71
2022/10/05 02:09:01;;;;;;;15.52;11.07;;;;;;;9.36;100.00;100809.19;5101563;28;20044;-71
2022/10/05 02:11:28;;;;;;;17.60;11.02;;;;;;;9.33;100.00;100806.66;5095069;28;20123;-71
2022/10/05 02:14:06;;;;;;;22.45;13.85;;;;;;;9.33;100.00;100801.38;5093185;28;20056;-71
2022/10/05 02:16:42;;;;;;;22.27;14.63;;;;;;;9.37;100.00;100803.00;5095718;28;20044;-73
2022/10/05 02:19:20;;;;;;;24.48;15.77;;;;;;;9.47;100.00;100800.88;5095853;28;20106;-72
2022/10/05 02:21:53;;;;;;;26.13;15.73;;;;;;;9.54;100.00;100805.03;5094180;28;20075;-71
2022/10/05 02:24:28;;;;;;;23.25;15.02;;;;;;;9.59;100.00;100811.03;5094582;28;20496;-71
2022/10/05 02:26:55;;;;;;;25.80;17.02;;;;;;;9.64;100.00;100802.91;5093032;28;20043;-71
2022/10/05 02:29:26;;;;;;;25.35;16.27;;;;;;;9.61;100.00;100787.16;5095182;28;20056;-71
2022/10/05 02:32:03;;;;;;;24.80;16.27;;;;;;;9.53;100.00;100776.88;5089791;28;20533;-71
2022/10/05 02:34:43;;;;;;;23.55;16.02;;;;;;;9.71;100.00;100791.19;5092520;28;20583;-71
2022/10/05 02:37:24;;;;;;;29.45;16.88;;;;;;;9.75;100.00;100777.81;5096163;28;20131;-73
2022/10/05 02:39:53;;;;;;;28.77;16.65;;;;;;;9.84;100.00;100784.53;5098327;28;20047;-71
2022/10/05 02:42:26;;;;;;;22.70;16.08;;;;;;;9.87;100.00;100776.47;5100786;28;20058;-72
2022/10/05 02:45:17;;;;;;;21.30;15.45;;;;;;;9.81;100.00;100758.19;5093182;28;20139;-73
2022/10/05 02:48:03;;;;;;;24.42;15.93;;;;;;;9.83;100.00;100759.00;5092116;28;20558;-72
2022/10/05 02:50:52;;;;;;;28.50;16.02;;;;;;;9.79;100.00;100773.25;5091715;28;20047;-71
2022/10/05 02:53:43;;;;;;;21.60;14.77;;;;;;;9.68;100.00;100786.00;5092726;28;20491;-71
2022/10/05 02:56:35;;;;;;;24.50;15.52;;;;;;;9.56;100.00;100787.34;5091775;28;20216;-71
2022/10/05 02:59:15;;;;;;;24.55;15.25;;;;;;;9.48;100.00;100782.31;5094135;28;20055;-71
2022/10/05 03:01:53;;;;;;;20.05;13.48;;;;;;;9.44;100.00;100793.91;5096936;28;20521;-71
2022/10/05 03:04:26;;;;;;;19.45;13.73;;;;;;;9.27;100.00;100764.59;5092728;28;20104;-71
2022/10/05 03:07:01;;;;;;;21.00;13.43;;;;;;;9.13;100.00;100769.50;5094302;28;20051;-70
2022/10/05 03:09:34;;;;;;;20.92;13.50;;;;;;;9.07;100.00;100782.94;5094773;28;20050;-71
2022/10/05 03:12:11;;;;;;;22.08;14.10;;;;;;;9.10;100.00;100801.31;5095215;28;20432;-72
2022/10/05 03:14:49;;;;;;;21.58;13.60;;;;;;;8.94;100.00;100779.84;5074211;28;20040;-71
2022/10/05 03:17:33;;;;;;;24.02;13.65;;;;;;;8.97;100.00;100794.75;5095532;28;20048;-71
2022/10/05 03:20:09;;;;;;;20.75;13.30;;;;;;;8.92;100.00;100778.19;5096461;28;20058;-69
2022/10/05 03:22:49;;;;;;;20.10;12.60;;;;;;;9.08;100.00;100804.00;5095564;28;20047;-71
2022/10/05 03:25:40;;;;;;;17.48;11.85;;;;;;;8.92;100.00;100780.81;5098480;28;20039;-72
2022/10/05 03:28:25;;;;;;;19.90;13.15;;;;;;;8.82;100.00;100785.53;5099578;28;20411;-71
2022/10/05 03:31:03;;;;;;;20.23;13.15;;;;;;;8.85;100.00;100803.91;5096926;28;20088;-71
2022/10/05 03:33:47;;;;;;;19.08;13.63;;;;;;;8.81;100.00;100810.25;5100635;28;20051;-72
2022/10/05 03:36:21;;;;;;;20.92;13.35;;;;;;;8.79;100.00;100820.84;5091224;28;20048;-72
2022/10/05 03:39:13;;;;;;;20.08;14.10;;;;;;;8.81;100.00;100814.66;5102695;28;20047;-72
2022/10/05 03:41:55;;;;;;;30.25;16.33;;;;;;;8.89;100.00;100825.81;5104260;28;20058;-72
2022/10/05 03:44:40;;;;;;;25.20;15.57;;;;;;;8.94;100.00;100823.88;5099633;28;20399;-71
2022/10/05 03:47:13;;;;;;;35.63;19.25;;;;;;;8.97;100.00;100821.16;5095826;28;20044;-71
2022/10/05 03:49:57;;;;;;;38.47;20.38;;;;;;;9.00;100.00;100815.75;5094263;28;20046;-71
2022/10/05 03:52:35;;;;;;;40.15;21.52;;;;;;;9.02;100.00;100827.13;5094043;28;21033;-71
2022/10/05 03:55:33;;;;;;;47.72;22.38;;;;;;;9.08;100.00;100824.28;5092568;28;20487;-70
2022/10/05 03:58:05;;;;;;;43.45;21.00;;;;;;;9.06;100.00;100803.19;5094775;28;20148;-71
2022/10/05 04:00:35;;;;;;;44.28;21.35;;;;;;;9.33;100.00;100819.88;5090061;28;20046;-69
2022/10/05 04:03:20;;;;;;;41.90;21.35;;;;;;;9.44;100.00;100806.28;5093556;28;20656;-71
2022/10/05 04:05:50;;;;;;;44.70;22.15;;;;;;;9.58;100.00;100805.78;5089771;28;20050;-71
2022/10/05 04:08:45;;;;;;;45.78;21.85;;;;;;;9.63;100.00;100809.13;5091888;28;20052;-71
2022/10/05 04:11:20;;;;;;;39.00;20.77;;;;;;;9.48;100.00;100771.75;5092292;28;20074;-71
2022/10/05 04:14:06;;;;;;;39.55;21.88;;;;;;;9.66;100.00;100799.28;5095085;28;20322;-70
2022/10/05 04:16:42;;;;;;;38.30;20.13;;;;;;;9.69;100.00;100803.59;5092896;28;20043;-72
2022/10/05 04:19:17;;;;;;;34.15;19.35;;;;;;;9.69;100.00;100798.31;5094158;28;20574;-71
2022/10/05 04:22:10;;;;;;;34.75;19.35;;;;;;;9.70;100.00;100794.75;5089565;28;20500;-70
2022/10/05 04:24:54;;;;;;;30.25;18.30;;;;;;;9.78;100.00;100782.97;5092975;28;20412;-71
2022/10/05 04:27:29;;;;;;;30.80;18.75;;;;;;;9.64;100.00;100773.81;5095897;28;20063;-71
2022/10/05 04:30:11;;;;;;;27.05;18.02;;;;;;;9.54;100.00;100772.44;5095397;28;20055;-73
2022/10/05 04:32:41;;;;;;;27.67;17.70;;;;;;;9.58;100.00;100779.34;5095656;28;20055;-70
2022/10/05 04:35:33;;;;;;;26.80;17.58;;;;;;;9.67;100.00;100800.16;5101056;28;20059;-71
2022/10/05 04:38:18;;;;;;;36.20;18.20;;;;;;;9.65;100.00;100804.63;5096969;28;20051;-71
2022/10/05 04:41:17;;;;;;;26.45;18.05;;;;;;;9.63;100.00;100809.13;5098565;28;20382;-73
2022/10/05 04:44:05;;;;;;;31.00;18.00;;;;;;;9.48;100.00;100787.59;5099960;28;20605;-72
2022/10/05 04:47:03;;;;;;;29.13;19.45;;;;;;;9.67;100.00;100818.66;5095742;28;20471;-71
2022/10/05 04:50:06;;;;;;;31.20;19.63;;;;;;;9.59;100.00;100794.31;5101431;28;20040;-72
2022/10/05 04:52:51;;;;;;;30.35;18.85;;;;;;;9.66;100.00;100815.16;5094854;28;20040;-72
2022/10/05 04:55:50;;;;;;;30.75;19.70;;;;;;;9.71;100.00;100822.94;5095042;28;20132;-72
2022/10/05 04:58:36;;;;;;;29.00;19.42;;;;;;;9.73;100.00;100815.81;5094169;28;20131;-73
2022/10/05 05:01:35;;;;;;;36.60;19.90;;;;;;;9.77;100.00;100827.97;5096441;28;20055;-71
2022/10/05 05:04:26;;;;;;;30.90;19.83;;;;;;;9.78;100.00;100819.13;5095884;28;20090;-71
2022/10/05 05:07:02;;;;;;;;;;;;;;;9.78;100.00;100827.06;5100790;28;20127;-72
2022/10/05 05:09:52;;;;;;;32.08;19.73;;;;;;;9.75;100.00;100819.25;5097735;28;19920;-70
2022/10/05 05:12:38;;;;;;;34.63;19.95;;;;;;;9.77;100.00;100812.09;5095230;28;20544;-73
2022/10/05 05:16:02;;;;;;;34.53;21.23;;;;;;;9.81;100.00;100829.59;5093456;28;20094;-71
2022/10/05 05:18:41;;;;;;;32.45;20.38;;;;;;;9.85;100.00;100820.63;5019411;28;20119;-72
2022/10/05 05:21:37;;;;;;;33.00;20.52;;;;;;;9.78;100.00;100806.75;5022207;28;20117;-73
2022/10/05 05:24:39;;;;;;;31.20;19.73;;;;;;;9.93;100.00;100834.44;5068191;28;20052;-71
2022/10/05 05:27:08;;;;;;;34.28;21.27;;;;;;;9.84;100.00;100811.84;5099251;28;20051;-70
2022/10/05 05:30:20;;;;;;;39.13;21.88;;;;;;;9.96;100.00;100839.63;5101769;28;20058;-69
2022/10/05 05:33:01;;;;;;;38.92;21.42;;;;;;;9.89;100.00;100824.91;5099404;28;20052;-70
2022/10/05 05:35:34;;;;;;;39.33;22.52;;;;;;;9.90;100.00;100837.22;5103176;28;20059;-70
2022/10/05 05:38:06;;;;;;;37.45;22.98;;;;;;;9.85;100.00;100847.97;5102365;28;20050;-70
2022/10/05 05:40:39;;;;;;;40.45;22.67;;;;;;;9.88;100.00;100844.34;5101153;28;20048;-70
2022/10/05 05:43:23;;;;;;;35.90;22.15;;;;;;;9.92;100.00;100839.78;5109895;28;20130;-71
2022/10/05 05:45:58;;;;;;;45.65;22.25;;;;;;;10.04;100.00;100850.78;5102393;27;20048;-70
2022/10/05 05:48:28;;;;;;;42.28;23.63;;;;;;;9.98;100.00;100836.91;5095893;28;20521;-72
2022/10/05 05:51:07;;;;;;;34.08;20.40;;;;;;;10.03;100.00;100849.06;5098070;28;20578;-72
2022/10/05 05:53:44;;;;;;;32.58;20.60;;;;;;;10.11;100.00;100854.91;5096734;28;20052;-72
2022/10/05 05:56:17;;;;;;;32.22;20.50;;;;;;;10.10;100.00;100847.03;5098774;28;20773;-70
2022/10/05 05:59:09;;;;;;;29.95;20.00;;;;;;;10.16;100.00;100852.97;5103798;28;20142;-71
2022/10/05 06:01:44;;;;;;;33.90;20.20;;;;;;;10.09;100.00;100861.19;5108038;28;20138;-72
2022/10/05 06:04:17;;;;;;;34.60;21.17;;;;;;;10.06;100.00;100856.88;5095625;28;20495;-70
2022/10/05 06:06:51;;;;;;;34.35;21.05;;;;;;;10.08;100.00;100849.72;5096833;28;20047;-70
2022/10/05 06:09:35;;;;;;;35.05;20.67;;;;;;;10.13;100.00;100841.63;5092161;28;20054;-69
2022/10/05 06:12:08;;;;;;;30.15;18.50;;;;;;;10.20;100.00;100840.53;5094731;28;20044;-70
2022/10/05 06:14:54;;;;;;;31.35;19.33;;;;;;;10.29;100.00;100858.69;5094265;28;20046;-70
2022/10/05 06:17:32;;;;;;;35.92;20.15;;;;;;;10.36;100.00;100851.38;5093600;28;20689;-72
2022/10/05 06:20:02;;;;;;;37.33;20.80;;;;;;;10.39;100.00;100849.44;5092921;28;20054;-70
2022/10/05 06:22:42;;;;;;;42.25;20.40;;;;;;;10.49;100.00;100856.13;5097138;28;20565;-70
2022/10/05 06:25:11;;;;;;;35.75;19.45;;;;;;;10.58;100.00;100860.19;5092854;28;20058;-71
2022/10/05 06:28:10;;;;;;;39.45;20.25;;;;;;;10.72;100.00;100857.84;5095456;28;20348;-70
2022/10/05 06:30:57;;;;;;;37.20;20.50;;;;;;;10.68;100.00;100829.78;5095376;28;20148;-70
2022/10/05 06:33:44;;;;;;;36.63;18.80;;;;;;;10.83;100.00;100845.06;5095135;28;20748;-69
2022/10/05 06:36:28;;;;;;;40.38;18.58;;;;;;;10.90;100.00;100856.25;5098163;28;20050;-72
2022/10/05 06:39:19;;;;;;;41.80;20.38;;;;;;;10.95;100.00;100856.94;5102018;28;20067;-71
2022/10/05 06:42:18;;;;;;;39.45;19.00;;;;;;;11.02;100.00;100850.44;5097243;28;20423;-72
2022/10/05 06:44:45;;;;;;;37.67;19.38;;;;;;;11.10;100.00;100860.72;5091342;28;20478;-70
2022/10/05 06:47:32;;;;;;;35.60;17.85;;;;;;;11.16;100.00;100849.88;5099689;28;20043;-70
2022/10/05 06:50:14;;;;;;;39.80;19.13;;;;;;;11.24;100.00;100858.34;5098169;28;20044;-70
2022/10/05 06:53:06;;;;;;;38.88;19.27;;;;;;;11.28;100.00;100846.69;5095118;28;20765;-73
2022/10/05 06:55:44;;;;;;;43.05;18.73;;;;;;;11.33;100.00;100863.28;5095388;28;20051;-74
2022/10/05 06:58:37;;;;;;;39.35;19.33;;;;;;;11.37;100.00;100858.69;5091218;28;20568;-71
2022/10/05 07:01:32;;;;;;;42.28;19.25;;;;;;;11.41;100.00;100863.81;5095143;28;20086;-71
2022/10/05 07:04:07;;;;;;;39.58;18.92;;;;;;;11.49;100.00;100864.31;5080263;28;20044;-70
2022/10/05 07:06:45;;;;;;;43.45;20.38;;;;;;;11.47;100.00;100852.09;5091120;28;20116;-69
2022/10/05 07:09:17;;;;;;;36.40;18.35;;;;;;;11.54;100.00;100864.13;5096913;28;20139;-69
2022/10/05 07:12:16;;;;;;;47.67;20.88;;;;;;;11.58;100.00;100866.59;5092229;28;20059;-69
2022/10/05 07:15:19;;;;;;;45.30;20.02;;;;;;;11.57;100.00;100870.19;5053542;28;20054;-70
2022/10/05 07:18:08;;;;;;;49.15;22.55;;;;;;;11.62;100.00;100871.78;5098419;28;20126;-71
2022/10/05 07:20:56;;;;;;;51.65;21.52;;;;;;;11.58;100.00;100871.91;5081670;28;20049;-69
2022/10/05 07:23:41;;;;;;;51.58;22.48;;;;;;;11.58;100.00;100869.25;5098777;28;20507;-68
2022/10/05 07:26:20;;;;;;;51.50;23.10;;;;;;;11.58;100.00;100869.25;5097635;28;20047;-71
2022/10/05 07:29:09;;;;;;;47.60;23.45;;;;;;;11.59;100.00;100868.31;5078731;28;20126;-70
2022/10/05 07:31:48;;;;;;;49.08;22.23;;;;;;;11.73;100.00;100873.00;5096281;28;20071;-72
2022/10/05 07:34:34;;;;;;;50.67;21.50;;;;;;;11.81;100.00;100867.38;5095865;28;20119;-70
2022/10/05 07:40:13;;;;;;;46.88;21.15;;;;;;;11.96;100.00;100871.19;5101967;28;20135;-70
2022/10/05 07:42:58;;;;;;;53.17;21.20;;;;;;;11.91;100.00;100869.59;5100541;27;20071;-71
2022/10/05 07:45:36;;;;;;;48.28;21.75;;;;;;;11.86;100.00;100863.63;5098314;28;20058;-71
2022/10/05 07:48:46;;;;;;;45.55;20.70;;;;;;;11.89;100.00;100860.81;5098886;28;20075;-70
2022/10/05 07:51:30;;;;;;;39.88;19.92;;;;;;;11.81;100.00;100838.19;5083974;28;20075;-71
2022/10/05 07:54:20;;;;;;;35.63;18.33;;;;;;;11.98;100.00;100862.19;5096286;28;20127;-72
2022/10/05 07:57:15;;;;;;;41.22;20.50;;;;;;;11.99;100.00;100868.34;5095506;28;20486;-71
2022/10/05 07:59:51;;;;;;;41.05;18.98;;;;;;;11.87;100.00;100849.41;5101131;28;20814;-70
2022/10/05 08:02:26;;;;;;;40.33;17.48;;;;;;;11.95;100.00;100870.31;5096130;28;20082;-69
2022/10/05 08:05:12;;;;;;;34.15;18.27;;;;;;;11.93;100.00;100875.69;5095822;28;20051;-69
2022/10/05 08:07:39;;;;;;;27.80;16.38;;;;;;;11.97;100.00;100860.47;5100325;28;20645;-70
2022/10/05 08:10:28;;;;;;;32.15;17.55;;;;;;;12.03;100.00;100881.44;5101977;28;20047;-70
2022/10/05 08:13:33;;;;;;;30.38;17.30;;;;;;;11.83;100.00;100868.19;5103006;28;20063;-69
2022/10/05 08:16:04;;;;;;;35.10;18.00;;;;;;;11.63;100.00;100868.19;5097294;28;20138;-70
2022/10/05 08:18:49;;;;;;;;;;;;;;;11.52;100.00;100871.28;5097763;28;20044;-70
2022/10/05 08:21:22;;;;;;;37.97;19.70;;;;;;;11.49;100.00;100869.63;5104808;27;19973;-70
2022/10/05 08:23:57;;;;;;;40.35;20.98;;;;;;;11.56;100.00;100867.59;5101408;28;20059;-73
2022/10/05 08:26:27;;;;;;;42.55;21.70;;;;;;;11.65;100.00;100867.16;5097982;28;20047;-71
2022/10/05 08:29:09;;;;;;;41.63;21.83;;;;;;;11.79;100.00;100859.53;5103434;28;20046;-71
2022/10/05 08:31:43;;;;;;;43.33;22.15;;;;;;;11.89;100.00;100858.16;5100743;28;20479;-74
2022/10/05 08:34:48;;;;;;;41.33;22.45;;;;;;;12.02;100.00;100858.47;5098255;28;20044;-73
2022/10/05 08:37:32;;;;;;;40.28;26.13;;;;;;;12.22;100.00;100863.75;5102890;28;20059;-72
2022/10/05 08:40:17;;;;;;;36.97;26.73;;;;;;;12.33;100.00;100859.72;5099922;28;20053;-69
2022/10/05 08:42:56;;;;;;;38.13;28.05;;;;;;;12.46;100.00;100860.84;5105080;28;20093;-71
2022/10/05 08:46:19;;;;;;;34.95;26.73;;;;;;;12.71;100.00;100853.44;5105100;28;20506;-73
2022/10/05 08:49:07;;;;;;;26.88;17.77;;;;;;;12.82;100.00;100856.44;5045050;28;20119;-72
2022/10/05 08:52:24;;;;;;;26.20;17.40;;;;;;;13.03;100.00;100851.00;5019024;28;20411;-73
2022/10/05 08:55:09;;;;;;;29.02;19.05;;;;;;;13.16;100.00;100842.38;5022657;28;20044;-73
2022/10/05 08:58:06;;;;;;;24.05;17.35;;;;;;;13.33;100.00;100849.50;5099478;28;20066;-71
2022/10/05 09:00:51;;;;;;;30.75;19.35;;;;;;;13.25;100.00;100841.88;5098488;28;20044;-71
2022/10/05 09:03:34;;;;;;;27.95;20.13;;;;;;;13.08;100.00;100856.94;5093638;28;20442;-71
2022/10/05 09:06:00;;;;;;;36.75;20.67;;;;;;;12.90;100.00;100856.94;5100126;28;20043;-75
2022/10/05 09:08:46;;;;;;;30.08;21.25;;;;;;;12.73;100.00;100843.59;5092658;28;20139;-76
2022/10/05 09:11:31;;;;;;;32.83;21.38;;;;;;;12.67;100.00;100848.34;5098512;28;20654;-73
2022/10/05 09:14:10;;;;;;;31.40;20.90;;;;;;;12.59;100.00;100851.38;5085470;28;20101;-72
2022/10/05 09:17:05;;;;;;;31.50;20.42;;;;;;;12.69;100.00;100849.13;5099098;28;20047;-71
2022/10/05 09:20:13;;;;;;;29.65;21.20;;;;;;;12.84;100.00;100862.53;5098542;28;20756;-71
2022/10/05 09:22:40;;;;;;;31.20;20.58;;;;;;;12.72;100.00;100836.56;5080557;28;20389;-72
2022/10/05 09:25:19;;;;;;;31.60;21.77;;;;;;;12.83;100.00;100847.53;5082551;28;20055;-74
2022/10/05 09:27:56;;;;;;;32.65;23.05;;;;;;;12.77;100.00;100852.28;5104641;28;20411;-75
2022/10/05 09:30:57;;;;;;;35.95;22.75;;;;;;;12.78;100.00;100854.84;5099879;27;20047;-75
2022/10/05 09:33:46;;;;;;;33.22;22.42;;;;;;;12.93;100.00;100846.13;5099395;28;20048;-76
2022/10/05 09:36:18;;;;;;;34.22;23.40;;;;;;;12.91;100.00;100857.75;5103263;27;20054;-78
2022/10/05 09:39:17;;;;;;;31.55;23.15;;;;;;;13.06;100.00;100853.53;5099233;28;20154;-77
2022/10/05 09:41:56;;;;;;;33.80;23.55;;;;;;;13.16;100.00;100852.13;5099621;27;20052;-77
2022/10/05 09:45:00;;;;;;;37.17;25.55;;;;;;;13.31;100.00;100848.72;5094991;28;20082;-76
2022/10/05 09:48:04;;;;;;;33.85;23.58;;;;;;;13.49;100.00;100850.44;5099810;27;20050;-80
2022/10/05 09:50:37;;;;;;;33.95;24.63;;;;;;;13.38;100.00;100826.16;5099191;28;20040;-75
2022/10/05 09:53:39;;;;;;;35.45;23.95;;;;;;;13.50;100.00;100838.84;5101198;27;20044;-76
2022/10/05 09:56:25;;;;;;;32.80;23.38;;;;;;;13.60;100.00;100809.94;5096898;27;20143;-74
2022/10/05 09:59:34;;;;;;;34.10;24.23;;;;;;;13.92;100.00;100832.19;5103117;28;20100;-77
2022/10/05 10:02:37;;;;;;;33.05;23.20;;;;;;;14.22;100.00;100827.84;5102995;28;20415;-75
2022/10/05 10:05:23;;;;;;;31.20;22.65;;;;;;;14.54;100.00;100817.22;5100273;28;20040;-77
2022/10/05 10:07:55;;;;;;;27.73;21.73;;;;;;;14.65;99.68;100797.00;5101045;28;20054;-77
2022/10/05 10:10:40;;;;;;;28.90;21.70;;;;;;;14.81;97.70;100818.31;5102279;28;20078;-76
2022/10/05 10:13:37;;;;;;;30.70;22.55;;;;;;;14.73;99.42;100812.56;5099645;28;20126;-77
2022/10/05 10:16:18;;;;;;;28.50;22.30;;;;;;;14.34;99.51;100789.88;5106699;28;20044;-79
2022/10/05 10:19:11;;;;;;;31.40;23.00;;;;;;;14.63;100.00;100811.41;5092747;28;20051;-72
2022/10/05 10:22:03;;;;;;;28.33;21.33;;;;;;;14.69;98.44;100790.56;5105094;28;20048;-77
2022/10/05 10:25:08;;;;;;;31.67;24.73;;;;;;;15.14;98.22;100809.28;5104045;28;20442;-76
2022/10/05 10:28:01;;;;;;;27.17;21.85;;;;;;;15.16;97.09;100808.25;5098910;28;20486;-75
2022/10/05 10:30:57;;;;;;;27.15;21.15;;;;;;;15.05;98.70;100789.38;5101349;28;20073;-76
2022/10/05 10:33:29;;;;;;;27.05;21.88;;;;;;;15.38;96.94;100814.03;5093116;28;20399;-75
2022/10/05 10:36:08;;;;;;;30.50;22.38;;;;;;;15.41;96.05;100800.50;5099294;28;20055;-75
2022/10/05 10:38:50;;;;;;;27.00;21.23;;;;;;;15.53;98.06;100811.38;5100932;27;20050;-75
2022/10/05 10:41:53;;;;;;;28.65;20.88;;;;;;;15.65;95.26;100811.53;5099948;28;20044;-76
2022/10/05 10:44:26;;;;;;;24.27;19.83;;;;;;;15.60;96.84;100792.25;5104935;28;20050;-75
2022/10/05 10:47:37;;;;;;;23.02;18.65;;;;;;;16.14;94.53;100813.81;5096840;28;20039;-74
2022/10/05 10:50:41;;;;;;;22.23;16.67;;;;;;;16.42;94.39;100807.56;5104035;28;20122;-80
2022/10/05 10:53:35;;;;;;;25.02;17.45;;;;;;;16.68;91.13;100803.22;5103774;28;20085;-80
2022/10/05 10:56:17;;;;;;;22.35;16.17;;;;;;;16.87;89.44;100795.69;5104768;28;20067;-80
2022/10/05 10:59:34;;;;;;;22.90;16.77;;;;;;;17.06;89.29;100798.84;5100823;27;20786;-76
2022/10/05 11:02:23;;;;;;;27.20;19.15;;;;;;;17.20;87.36;100792.56;5106631;28;20052;-81
2022/10/05 11:05:08;;;;;;;20.77;14.90;;;;;;;17.32;87.07;100782.81;5099445;28;20040;-78
2022/10/05 11:07:53;;;;;;;23.25;16.20;;;;;;;17.35;85.30;100785.28;5110308;27;20617;-72
2022/10/05 11:10:50;;;;;;;20.45;15.30;;;;;;;17.06;86.32;100758.72;5108103;27;20059;-75
2022/10/05 11:13:26;;;;;;;20.92;15.68;;;;;;;16.84;88.91;100769.16;5102619;28;20532;-79
2022/10/05 11:16:11;;;;;;;21.85;15.35;;;;;;;16.62;89.76;100755.47;5094171;28;20048;-77
2022/10/05 11:19:24;;;;;;;20.42;15.98;;;;;;;16.66;89.93;100762.34;5099823;28;20051;-71
2022/10/05 11:22:43;;;;;;;19.10;14.50;;;;;;;16.61;90.80;100764.44;5098468;28;20039;-79
2022/10/05 11:25:29;;;;;;;18.60;14.52;;;;;;;16.64;90.78;100769.63;5095074;28;20044;-76
2022/10/05 11:28:24;;;;;;;16.30;14.10;;;;;;;16.65;90.92;100766.00;5097106;28;20135;-77
2022/10/05 11:31:12;;;;;;;19.52;13.48;;;;;;;16.59;91.10;100753.84;5093679;28;20044;-80
2022/10/05 11:34:00;;;;;;;15.63;12.55;;;;;;;16.73;91.47;100752.94;5095402;28;20040;-74
2022/10/05 11:36:46;;;;;;;14.55;11.32;;;;;;;16.81;89.85;100730.09;5093420;28;20055;-77
2022/10/05 11:39:15;;;;;;;13.30;11.27;;;;;;;17.12;88.11;100741.38;5095734;28;20048;-78
2022/10/05 11:42:12;;;;;;;16.55;10.98;;;;;;;17.19;88.25;100751.56;5094759;28;20086;-82
2022/10/05 11:44:56;;;;;;;11.52;10.30;;;;;;;17.23;88.17;100744.16;5093158;28;20416;-78
2022/10/05 11:47:30;;;;;;;13.45;9.63;;;;;;;17.39;88.33;100735.94;5102378;28;20052;-80
2022/10/05 11:50:05;;;;;;;16.17;9.43;;;;;;;17.54;86.28;100730.38;5100987;28;20047;-80
2022/10/05 11:52:38;;;;;;;10.75;9.65;;;;;;;17.55;86.59;100731.22;5099824;28;20403;-79
2022/10/05 11:55:25;;;;;;;10.55;9.27;;;;;;;17.62;86.08;100737.88;5099363;28;20054;-75
2022/10/05 11:58:00;;;;;;;9.55;8.55;;;;;;;17.40;85.82;100719.78;5098988;28;20040;-79
2022/10/05 12:00:35;;;;;;;13.23;8.15;;;;;;;17.57;87.15;100728.44;5096467;28;20454;-80
2022/10/05 12:03:37;;;;;;;9.35;7.97;;;;;;;17.69;85.62;100722.22;5093265;28;20044;-80
2022/10/05 12:06:41;;;;;;;9.95;7.35;;;;;;;17.84;85.26;100721.13;5071941;28;20149;-81
2022/10/05 12:09:20;;;;;;;8.50;7.32;;;;;;;17.85;84.67;100699.59;5043476;28;20053;-75
2022/10/05 12:12:09;;;;;;;9.38;6.30;;;;;;;18.18;84.29;100722.22;5020724;28;20523;-80
2022/10/05 12:14:49;;;;;;;8.43;6.75;;;;;;;18.49;81.95;100684.13;5073367;28;20040;-77
2022/10/05 12:17:27;;;;;;;10.77;6.38;;;;;;;18.80;78.94;100700.59;5094820;28;20131;-80
2022/10/05 12:20:00;;;;;;;6.35;5.40;;;;;;;18.41;81.19;100708.00;5093960;28;20052;-78
2022/10/05 12:22:39;;;;;;;9.48;5.45;;;;;;;18.18;82.04;100682.88;5084497;28;20048;-82
2022/10/05 12:25:17;;;;;;;7.32;5.57;;;;;;;18.13;82.78;100700.25;5098731;28;20505;-79